sensor_id;sensor_type;location;lat;lon;timestamp;P1;durP1;ratioP1;P2;durP2;ratioP2
67997;SDS011;54773;53.388;-1.504;2022-09-21T00:01:10;6.47;;;3.65;;
67997;SDS011;54773;53.388;-1.504;2022-09-21T00:03:53;8.63;;;3.60;;
67997;SDS011;54773;53.388;-1.504;2022-09-21T00:06:20;6.70;;;3.40;;
67997;SDS011;54773;53.388;-1.504;2022-09-21T00:08:47;6.47;;;3.92;;
67997;SDS011;54773;53.388;-1.504;2022-09-21T00:11:23;7.43;;;3.70;;
67997;SDS011;54773;53.388;-1.504;2022-09-21T00:13:55;7.97;;;3.90;;
67997;SDS011;54773;53.388;-1.504;2022-09-21T00:16:32;6.60;;;3.50;;
67997;SDS011;54773;53.388;-1.504;2022-09-21T00:19:00;5.63;;;3.33;;
67997;SDS011;54773;53.388;-1.504;2022-09-21T00:21:26;5.30;;;3.42;;
67997;SDS011;54773;53.388;-1.504;2022-09-21T00:23:52;6.80;;;3.33;;
67997;SDS011;54773;53.388;-1.504;2022-09-21T00:26:19;6.60;;;3.53;;
67997;SDS011;54773;53.388;-1.504;2022-09-21T00:28:50;8.75;;;3.60;;
67997;SDS011;54773;53.388;-1.504;2022-09-21T00:31:18;7.93;;;3.47;;
67997;SDS011;54773;53.388;-1.504;2022-09-21T00:33:44;12.52;;;3.72;;
67997;SDS011;54773;53.388;-1.504;2022-09-21T00:36:11;7.30;;;3.30;;
67997;SDS011;54773;53.388;-1.504;2022-09-21T00:38:38;7.57;;;3.58;;
67997;SDS011;54773;53.388;-1.504;2022-09-21T00:41:07;6.28;;;3.17;;
67997;SDS011;54773;53.388;-1.504;2022-09-21T00:43:41;5.22;;;2.97;;
67997;SDS011;54773;53.388;-1.504;2022-09-21T00:46:30;8.25;;;4.03;;
67997;SDS011;54773;53.388;-1.504;2022-09-21T00:48:55;5.78;;;3.08;;
67997;SDS011;54773;53.388;-1.504;2022-09-21T00:51:21;5.70;;;3.20;;
67997;SDS011;54773;53.388;-1.504;2022-09-21T00:53:47;7.82;;;4.07;;
67997;SDS011;54773;53.388;-1.504;2022-09-21T00:56:17;6.85;;;4.18;;
67997;SDS011;54773;53.388;-1.504;2022-09-21T00:58:45;7.78;;;3.90;;
67997;SDS011;54773;53.388;-1.504;2022-09-21T01:01:12;6.95;;;3.70;;
67997;SDS011;54773;53.388;-1.504;2022-09-21T01:03:45;7.50;;;3.92;;
67997;SDS011;54773;53.388;-1.504;2022-09-21T01:06:11;6.50;;;3.50;;
67997;SDS011;54773;53.388;-1.504;2022-09-21T01:08:38;8.77;;;4.13;;
67997;SDS011;54773;53.388;-1.504;2022-09-21T01:17:13;7.38;;;3.42;;
67997;SDS011;54773;53.388;-1.504;2022-09-21T01:28:53;7.72;;;3.47;;
67997;SDS011;54773;53.388;-1.504;2022-09-21T01:31:13;6.68;;;3.28;;
67997;SDS011;54773;53.388;-1.504;2022-09-21T01:33:48;6.65;;;3.10;;
67997;SDS011;54773;53.388;-1.504;2022-09-21T01:36:18;5.68;;;3.20;;
67997;SDS011;54773;53.388;-1.504;2022-09-21T01:38:50;6.65;;;3.53;;
67997;SDS011;54773;53.388;-1.504;2022-09-21T01:41:23;8.35;;;3.35;;
67997;SDS011;54773;53.388;-1.504;2022-09-21T01:43:53;7.13;;;4.10;;
67997;SDS011;54773;53.388;-1.504;2022-09-21T01:46:21;7.57;;;3.53;;
67997;SDS011;54773;53.388;-1.504;2022-09-21T01:48:52;8.48;;;3.90;;
67997;SDS011;54773;53.388;-1.504;2022-09-21T01:51:20;8.77;;;3.25;;
67997;SDS011;54773;53.388;-1.504;2022-09-21T01:53:50;6.20;;;3.40;;
67997;SDS011;54773;53.388;-1.504;2022-09-21T01:58:54;7.63;;;3.80;;
67997;SDS011;54773;53.388;-1.504;2022-09-21T02:01:36;6.72;;;4.05;;
67997;SDS011;54773;53.388;-1.504;2022-09-21T02:04:08;6.30;;;3.72;;
67997;SDS011;54773;53.388;-1.504;2022-09-21T02:06:34;6.78;;;3.90;;
67997;SDS011;54773;53.388;-1.504;2022-09-21T02:09:07;7.80;;;4.05;;
67997;SDS011;54773;53.388;-1.504;2022-09-21T02:11:36;7.70;;;4.38;;
67997;SDS011;54773;53.388;-1.504;2022-09-21T02:14:10;6.68;;;3.88;;
67997;SDS011;54773;53.388;-1.504;2022-09-21T02:16:37;7.60;;;3.92;;
67997;SDS011;54773;53.388;-1.504;2022-09-21T02:21:50;7.85;;;3.70;;
67997;SDS011;54773;53.388;-1.504;2022-09-21T02:29:25;7.82;;;4.30;;
67997;SDS011;54773;53.388;-1.504;2022-09-21T02:34:52;7.10;;;4.10;;
67997;SDS011;54773;53.388;-1.504;2022-09-21T02:37:27;9.80;;;4.53;;
67997;SDS011;54773;53.388;-1.504;2022-09-21T02:42:48;10.55;;;4.70;;
67997;SDS011;54773;53.388;-1.504;2022-09-21T02:45:23;7.82;;;4.63;;
67997;SDS011;54773;53.388;-1.504;2022-09-21T02:47:56;7.07;;;4.15;;
67997;SDS011;54773;53.388;-1.504;2022-09-21T02:50:52;7.78;;;4.30;;
67997;SDS011;54773;53.388;-1.504;2022-09-21T02:53:29;7.85;;;4.40;;
67997;SDS011;54773;53.388;-1.504;2022-09-21T02:55:59;6.85;;;3.75;;
67997;SDS011;54773;53.388;-1.504;2022-09-21T02:58:31;8.73;;;4.32;;
67997;SDS011;54773;53.388;-1.504;2022-09-21T03:01:02;7.78;;;4.40;;
67997;SDS011;54773;53.388;-1.504;2022-09-21T03:03:31;7.57;;;4.20;;
67997;SDS011;54773;53.388;-1.504;2022-09-21T03:05:57;8.52;;;4.50;;
67997;SDS011;54773;53.388;-1.504;2022-09-21T03:08:23;8.85;;;4.95;;
67997;SDS011;54773;53.388;-1.504;2022-09-21T03:10:48;10.02;;;5.13;;
67997;SDS011;54773;53.388;-1.504;2022-09-21T03:13:15;11.00;;;4.95;;
67997;SDS011;54773;53.388;-1.504;2022-09-21T03:15:42;10.85;;;5.68;;
67997;SDS011;54773;53.388;-1.504;2022-09-21T03:18:08;10.90;;;5.07;;
67997;SDS011;54773;53.388;-1.504;2022-09-21T03:20:35;9.95;;;5.25;;
67997;SDS011;54773;53.388;-1.504;2022-09-21T03:23:02;10.32;;;5.35;;
67997;SDS011;54773;53.388;-1.504;2022-09-21T03:25:28;8.85;;;4.60;;
67997;SDS011;54773;53.388;-1.504;2022-09-21T03:27:55;7.45;;;4.30;;
67997;SDS011;54773;53.388;-1.504;2022-09-21T03:30:22;7.55;;;3.70;;
67997;SDS011;54773;53.388;-1.504;2022-09-21T03:32:48;7.43;;;3.83;;
67997;SDS011;54773;53.388;-1.504;2022-09-21T03:35:14;6.40;;;3.55;;
67997;SDS011;54773;53.388;-1.504;2022-09-21T03:37:40;6.07;;;3.03;;
67997;SDS011;54773;53.388;-1.504;2022-09-21T03:40:06;8.25;;;4.43;;
67997;SDS011;54773;53.388;-1.504;2022-09-21T03:42:32;6.82;;;3.75;;
67997;SDS011;54773;53.388;-1.504;2022-09-21T03:44:58;6.60;;;3.90;;
67997;SDS011;54773;53.388;-1.504;2022-09-21T03:47:24;7.60;;;3.70;;
67997;SDS011;54773;53.388;-1.504;2022-09-21T03:49:49;7.88;;;3.85;;
67997;SDS011;54773;53.388;-1.504;2022-09-21T03:52:15;8.18;;;4.10;;
67997;SDS011;54773;53.388;-1.504;2022-09-21T03:54:44;7.95;;;3.83;;
67997;SDS011;54773;53.388;-1.504;2022-09-21T03:57:10;7.68;;;4.20;;
67997;SDS011;54773;53.388;-1.504;2022-09-21T03:59:36;9.05;;;4.95;;
67997;SDS011;54773;53.388;-1.504;2022-09-21T04:02:05;7.75;;;4.60;;
67997;SDS011;54773;53.388;-1.504;2022-09-21T04:04:38;8.70;;;4.80;;
67997;SDS011;54773;53.388;-1.504;2022-09-21T04:07:07;10.30;;;4.57;;
67997;SDS011;54773;53.388;-1.504;2022-09-21T04:09:32;8.38;;;4.82;;
67997;SDS011;54773;53.388;-1.504;2022-09-21T04:11:58;9.30;;;4.70;;
67997;SDS011;54773;53.388;-1.504;2022-09-21T04:14:24;10.00;;;5.70;;
67997;SDS011;54773;53.388;-1.504;2022-09-21T04:16:49;9.30;;;5.22;;
67997;SDS011;54773;53.388;-1.504;2022-09-21T04:19:16;8.32;;;5.20;;
67997;SDS011;54773;53.388;-1.504;2022-09-21T04:21:46;8.80;;;4.55;;
67997;SDS011;54773;53.388;-1.504;2022-09-21T04:24:11;7.55;;;5.18;;
67997;SDS011;54773;53.388;-1.504;2022-09-21T04:26:37;9.38;;;4.70;;
67997;SDS011;54773;53.388;-1.504;2022-09-21T04:29:05;9.73;;;4.90;;
67997;SDS011;54773;53.388;-1.504;2022-09-21T04:31:35;9.70;;;4.68;;
67997;SDS011;54773;53.388;-1.504;2022-09-21T04:34:00;8.45;;;4.82;;
67997;SDS011;54773;53.388;-1.504;2022-09-21T04:36:26;10.23;;;5.00;;
67997;SDS011;54773;53.388;-1.504;2022-09-21T04:38:52;8.23;;;4.72;;
67997;SDS011;54773;53.388;-1.504;2022-09-21T04:41:21;10.68;;;5.63;;
67997;SDS011;54773;53.388;-1.504;2022-09-21T04:43:47;9.35;;;5.28;;
67997;SDS011;54773;53.388;-1.504;2022-09-21T04:46:14;9.07;;;5.40;;
67997;SDS011;54773;53.388;-1.504;2022-09-21T04:48:41;8.60;;;5.25;;
67997;SDS011;54773;53.388;-1.504;2022-09-21T04:51:09;10.15;;;6.18;;
67997;SDS011;54773;53.388;-1.504;2022-09-21T04:53:36;15.02;;;6.47;;
67997;SDS011;54773;53.388;-1.504;2022-09-21T04:56:02;10.75;;;6.70;;
67997;SDS011;54773;53.388;-1.504;2022-09-21T04:58:31;12.00;;;6.40;;
67997;SDS011;54773;53.388;-1.504;2022-09-21T05:00:57;12.55;;;6.68;;
67997;SDS011;54773;53.388;-1.504;2022-09-21T05:03:24;14.73;;;6.53;;
67997;SDS011;54773;53.388;-1.504;2022-09-21T05:05:51;12.77;;;7.30;;
67997;SDS011;54773;53.388;-1.504;2022-09-21T05:08:18;14.15;;;7.22;;
67997;SDS011;54773;53.388;-1.504;2022-09-21T05:11:05;12.70;;;7.20;;
67997;SDS011;54773;53.388;-1.504;2022-09-21T05:13:31;14.63;;;7.75;;
67997;SDS011;54773;53.388;-1.504;2022-09-21T05:15:57;13.43;;;7.72;;
67997;SDS011;54773;53.388;-1.504;2022-09-21T05:18:22;12.88;;;8.10;;
67997;SDS011;54773;53.388;-1.504;2022-09-21T05:20:54;16.30;;;8.90;;
67997;SDS011;54773;53.388;-1.504;2022-09-21T05:23:21;14.40;;;8.93;;
67997;SDS011;54773;53.388;-1.504;2022-09-21T05:25:50;16.27;;;8.75;;
67997;SDS011;54773;53.388;-1.504;2022-09-21T05:28:17;13.88;;;9.20;;
67997;SDS011;54773;53.388;-1.504;2022-09-21T05:30:45;13.60;;;8.60;;
67997;SDS011;54773;53.388;-1.504;2022-09-21T05:33:13;14.18;;;7.97;;
67997;SDS011;54773;53.388;-1.504;2022-09-21T05:35:47;13.45;;;8.00;;
67997;SDS011;54773;53.388;-1.504;2022-09-21T05:38:23;15.77;;;9.10;;
67997;SDS011;54773;53.388;-1.504;2022-09-21T05:40:49;17.30;;;9.60;;
67997;SDS011;54773;53.388;-1.504;2022-09-21T05:43:15;16.15;;;9.45;;
67997;SDS011;54773;53.388;-1.504;2022-09-21T05:45:45;15.10;;;8.70;;
67997;SDS011;54773;53.388;-1.504;2022-09-21T05:54:16;15.63;;;9.52;;
67997;SDS011;54773;53.388;-1.504;2022-09-21T06:02:53;15.60;;;9.27;;
67997;SDS011;54773;53.388;-1.504;2022-09-21T06:05:22;16.42;;;10.35;;
67997;SDS011;54773;53.388;-1.504;2022-09-21T06:07:49;17.67;;;10.13;;
67997;SDS011;54773;53.388;-1.504;2022-09-21T06:10:14;17.98;;;10.35;;
67997;SDS011;54773;53.388;-1.504;2022-09-21T06:12:40;17.05;;;10.35;;
67997;SDS011;54773;53.388;-1.504;2022-09-21T06:15:06;17.05;;;9.80;;
67997;SDS011;54773;53.388;-1.504;2022-09-21T06:17:34;17.75;;;10.05;;
67997;SDS011;54773;53.388;-1.504;2022-09-21T06:20:01;17.23;;;10.68;;
67997;SDS011;54773;53.388;-1.504;2022-09-21T06:22:27;18.50;;;12.00;;
67997;SDS011;54773;53.388;-1.504;2022-09-21T06:24:53;18.85;;;11.52;;
67997;SDS011;54773;53.388;-1.504;2022-09-21T06:27:18;19.80;;;12.00;;
67997;SDS011;54773;53.388;-1.504;2022-09-21T06:29:44;21.35;;;11.75;;
67997;SDS011;54773;53.388;-1.504;2022-09-21T06:32:09;22.58;;;11.43;;
67997;SDS011;54773;53.388;-1.504;2022-09-21T06:34:35;21.58;;;11.57;;
67997;SDS011;54773;53.388;-1.504;2022-09-21T06:37:02;19.58;;;12.40;;
67997;SDS011;54773;53.388;-1.504;2022-09-21T06:39:28;20.92;;;11.98;;
67997;SDS011;54773;53.388;-1.504;2022-09-21T06:41:53;22.33;;;12.40;;
67997;SDS011;54773;53.388;-1.504;2022-09-21T06:44:19;21.38;;;12.48;;
67997;SDS011;54773;53.388;-1.504;2022-09-21T06:46:45;22.30;;;12.20;;
67997;SDS011;54773;53.388;-1.504;2022-09-21T06:49:13;22.10;;;12.52;;
67997;SDS011;54773;53.388;-1.504;2022-09-21T06:51:43;23.30;;;12.32;;
67997;SDS011;54773;53.388;-1.504;2022-09-21T06:54:08;19.52;;;11.55;;
67997;SDS011;54773;53.388;-1.504;2022-09-21T06:56:34;20.17;;;11.60;;
67997;SDS011;54773;53.388;-1.504;2022-09-21T06:59:01;20.48;;;12.70;;
67997;SDS011;54773;53.388;-1.504;2022-09-21T07:01:26;20.73;;;12.43;;
67997;SDS011;54773;53.388;-1.504;2022-09-21T07:03:52;19.17;;;11.95;;
67997;SDS011;54773;53.388;-1.504;2022-09-21T07:06:18;23.15;;;12.68;;
67997;SDS011;54773;53.388;-1.504;2022-09-21T07:08:44;21.90;;;13.30;;
67997;SDS011;54773;53.388;-1.504;2022-09-21T07:11:11;21.48;;;13.10;;
67997;SDS011;54773;53.388;-1.504;2022-09-21T07:13:38;25.75;;;13.95;;
67997;SDS011;54773;53.388;-1.504;2022-09-21T07:16:04;21.67;;;12.90;;
67997;SDS011;54773;53.388;-1.504;2022-09-21T07:18:31;24.80;;;14.57;;
67997;SDS011;54773;53.388;-1.504;2022-09-21T07:21:01;23.05;;;14.20;;
67997;SDS011;54773;53.388;-1.504;2022-09-21T07:23:31;23.65;;;13.30;;
67997;SDS011;54773;53.388;-1.504;2022-09-21T07:26:00;23.10;;;12.75;;
67997;SDS011;54773;53.388;-1.504;2022-09-21T07:28:26;23.73;;;12.38;;
67997;SDS011;54773;53.388;-1.504;2022-09-21T07:30:52;20.60;;;12.30;;
67997;SDS011;54773;53.388;-1.504;2022-09-21T07:33:17;20.58;;;11.35;;
67997;SDS011;54773;53.388;-1.504;2022-09-21T07:35:50;19.25;;;11.02;;
67997;SDS011;54773;53.388;-1.504;2022-09-21T07:38:21;15.23;;;9.77;;
67997;SDS011;54773;53.388;-1.504;2022-09-21T07:40:46;18.73;;;10.18;;
67997;SDS011;54773;53.388;-1.504;2022-09-21T07:43:13;16.88;;;9.70;;
67997;SDS011;54773;53.388;-1.504;2022-09-21T07:45:39;16.70;;;8.98;;
67997;SDS011;54773;53.388;-1.504;2022-09-21T07:48:05;16.70;;;8.77;;
67997;SDS011;54773;53.388;-1.504;2022-09-21T07:50:31;13.73;;;8.13;;
67997;SDS011;54773;53.388;-1.504;2022-09-21T07:53:00;12.85;;;8.15;;
67997;SDS011;54773;53.388;-1.504;2022-09-21T07:55:27;14.10;;;7.82;;
67997;SDS011;54773;53.388;-1.504;2022-09-21T07:57:52;11.75;;;7.15;;
67997;SDS011;54773;53.388;-1.504;2022-09-21T08:00:40;13.65;;;7.65;;
67997;SDS011;54773;53.388;-1.504;2022-09-21T08:03:05;12.57;;;7.88;;
67997;SDS011;54773;53.388;-1.504;2022-09-21T08:05:32;13.10;;;7.63;;
67997;SDS011;54773;53.388;-1.504;2022-09-21T08:07:58;11.45;;;7.00;;
67997;SDS011;54773;53.388;-1.504;2022-09-21T08:10:23;11.77;;;7.50;;
67997;SDS011;54773;53.388;-1.504;2022-09-21T08:12:51;11.93;;;7.80;;
67997;SDS011;54773;53.388;-1.504;2022-09-21T08:15:16;16.77;;;8.10;;
67997;SDS011;54773;53.388;-1.504;2022-09-21T08:17:42;12.15;;;7.28;;
67997;SDS011;54773;53.388;-1.504;2022-09-21T08:20:09;15.32;;;8.00;;
67997;SDS011;54773;53.388;-1.504;2022-09-21T08:22:34;12.30;;;7.43;;
67997;SDS011;54773;53.388;-1.504;2022-09-21T08:25:00;13.75;;;7.60;;
67997;SDS011;54773;53.388;-1.504;2022-09-21T08:27:25;16.23;;;7.45;;
67997;SDS011;54773;53.388;-1.504;2022-09-21T08:29:52;12.43;;;7.30;;
67997;SDS011;54773;53.388;-1.504;2022-09-21T08:32:17;11.68;;;6.25;;
67997;SDS011;54773;53.388;-1.504;2022-09-21T08:34:43;10.50;;;6.38;;
67997;SDS011;54773;53.388;-1.504;2022-09-21T08:37:08;15.48;;;6.88;;
67997;SDS011;54773;53.388;-1.504;2022-09-21T08:39:34;12.68;;;6.50;;
67997;SDS011;54773;53.388;-1.504;2022-09-21T08:42:03;9.88;;;5.60;;
67997;SDS011;54773;53.388;-1.504;2022-09-21T08:49:40;8.80;;;4.97;;
67997;SDS011;54773;53.388;-1.504;2022-09-21T08:52:12;8.45;;;5.15;;
67997;SDS011;54773;53.388;-1.504;2022-09-21T08:57:25;12.07;;;5.10;;
67997;SDS011;54773;53.388;-1.504;2022-09-21T08:59:54;9.02;;;5.40;;
67997;SDS011;54773;53.388;-1.504;2022-09-21T09:05:31;8.77;;;5.40;;
67997;SDS011;54773;53.388;-1.504;2022-09-21T09:10:50;9.15;;;5.70;;
67997;SDS011;54773;53.388;-1.504;2022-09-21T09:13:27;9.90;;;6.13;;
67997;SDS011;54773;53.388;-1.504;2022-09-21T09:21:15;10.50;;;5.85;;
67997;SDS011;54773;53.388;-1.504;2022-09-21T09:24:01;8.43;;;5.07;;
67997;SDS011;54773;53.388;-1.504;2022-09-21T09:26:48;8.48;;;4.88;;
67997;SDS011;54773;53.388;-1.504;2022-09-21T09:31:45;8.10;;;4.32;;
67997;SDS011;54773;53.388;-1.504;2022-09-21T09:37:14;7.20;;;4.00;;
67997;SDS011;54773;53.388;-1.504;2022-09-21T09:39:47;7.22;;;3.83;;
67997;SDS011;54773;53.388;-1.504;2022-09-21T09:50:34;6.70;;;3.75;;
67997;SDS011;54773;53.388;-1.504;2022-09-21T09:53:04;6.28;;;3.50;;
67997;SDS011;54773;53.388;-1.504;2022-09-21T09:55:37;6.22;;;3.42;;
67997;SDS011;54773;53.388;-1.504;2022-09-21T09:58:14;7.22;;;3.38;;
67997;SDS011;54773;53.388;-1.504;2022-09-21T10:01:01;6.65;;;3.83;;
67997;SDS011;54773;53.388;-1.504;2022-09-21T10:03:27;8.88;;;3.75;;
67997;SDS011;54773;53.388;-1.504;2022-09-21T10:05:53;5.72;;;3.53;;
67997;SDS011;54773;53.388;-1.504;2022-09-21T10:08:26;7.35;;;3.30;;
67997;SDS011;54773;53.388;-1.504;2022-09-21T10:11:01;7.53;;;3.65;;
67997;SDS011;54773;53.388;-1.504;2022-09-21T10:13:32;6.93;;;3.53;;
67997;SDS011;54773;53.388;-1.504;2022-09-21T10:15:59;6.28;;;3.50;;
67997;SDS011;54773;53.388;-1.504;2022-09-21T10:21:16;7.47;;;3.80;;
67997;SDS011;54773;53.388;-1.504;2022-09-21T10:23:46;7.05;;;4.07;;
67997;SDS011;54773;53.388;-1.504;2022-09-21T10:28:55;7.10;;;3.58;;
67997;SDS011;54773;53.388;-1.504;2022-09-21T10:31:29;6.32;;;3.45;;
67997;SDS011;54773;53.388;-1.504;2022-09-21T10:36:34;5.85;;;3.58;;
67997;SDS011;54773;53.388;-1.504;2022-09-21T10:39:21;8.35;;;3.95;;
67997;SDS011;54773;53.388;-1.504;2022-09-21T10:41:58;7.32;;;3.72;;
67997;SDS011;54773;53.388;-1.504;2022-09-21T10:44:26;4.80;;;2.90;;
67997;SDS011;54773;53.388;-1.504;2022-09-21T10:46:53;5.15;;;2.67;;
67997;SDS011;54773;53.388;-1.504;2022-09-21T10:49:27;4.90;;;2.53;;
67997;SDS011;54773;53.388;-1.504;2022-09-21T10:51:56;4.95;;;2.55;;
67997;SDS011;54773;53.388;-1.504;2022-09-21T10:54:24;4.88;;;2.63;;
67997;SDS011;54773;53.388;-1.504;2022-09-21T10:56:56;4.38;;;2.30;;
67997;SDS011;54773;53.388;-1.504;2022-09-21T10:59:25;4.93;;;2.22;;
67997;SDS011;54773;53.388;-1.504;2022-09-21T11:01:54;5.82;;;2.63;;
67997;SDS011;54773;53.388;-1.504;2022-09-21T11:07:42;4.85;;;1.98;;
67997;SDS011;54773;53.388;-1.504;2022-09-21T11:10:15;3.47;;;1.50;;
67997;SDS011;54773;53.388;-1.504;2022-09-21T11:15:44;3.53;;;1.60;;
67997;SDS011;54773;53.388;-1.504;2022-09-21T11:18:12;3.50;;;1.58;;
67997;SDS011;54773;53.388;-1.504;2022-09-21T11:20:47;5.18;;;1.70;;
67997;SDS011;54773;53.388;-1.504;2022-09-21T11:23:36;3.42;;;1.40;;
67997;SDS011;54773;53.388;-1.504;2022-09-21T11:26:12;4.68;;;1.70;;
67997;SDS011;54773;53.388;-1.504;2022-09-21T11:28:45;3.78;;;1.45;;
67997;SDS011;54773;53.388;-1.504;2022-09-21T11:45:22;5.30;;;1.80;;
67997;SDS011;54773;53.388;-1.504;2022-09-21T12:00:13;4.97;;;2.13;;
67997;SDS011;54773;53.388;-1.504;2022-09-21T12:05:41;3.72;;;1.80;;
67997;SDS011;54773;53.388;-1.504;2022-09-21T12:14:03;3.55;;;1.73;;
67997;SDS011;54773;53.388;-1.504;2022-09-21T12:21:38;4.13;;;1.50;;
67997;SDS011;54773;53.388;-1.504;2022-09-21T12:27:03;5.05;;;1.90;;
67997;SDS011;54773;53.388;-1.504;2022-09-21T12:33:11;3.58;;;1.52;;
67997;SDS011;54773;53.388;-1.504;2022-09-21T12:38:08;4.22;;;1.60;;
67997;SDS011;54773;53.388;-1.504;2022-09-21T12:46:12;3.42;;;1.65;;
67997;SDS011;54773;53.388;-1.504;2022-09-21T12:48:41;3.83;;;1.77;;
67997;SDS011;54773;53.388;-1.504;2022-09-21T12:51:23;3.92;;;1.60;;
67997;SDS011;54773;53.388;-1.504;2022-09-21T12:53:53;3.25;;;1.83;;
67997;SDS011;54773;53.388;-1.504;2022-09-21T13:04:56;4.13;;;1.70;;
67997;SDS011;54773;53.388;-1.504;2022-09-21T13:07:27;4.13;;;1.93;;
67997;SDS011;54773;53.388;-1.504;2022-09-21T13:10:13;4.80;;;1.83;;
67997;SDS011;54773;53.388;-1.504;2022-09-21T13:13:03;4.25;;;2.17;;
67997;SDS011;54773;53.388;-1.504;2022-09-21T13:15:41;3.95;;;2.10;;
67997;SDS011;54773;53.388;-1.504;2022-09-21T13:18:19;4.78;;;1.98;;
67997;SDS011;54773;53.388;-1.504;2022-09-21T13:20:54;4.78;;;2.17;;
67997;SDS011;54773;53.388;-1.504;2022-09-21T13:23:25;5.05;;;2.55;;
67997;SDS011;54773;53.388;-1.504;2022-09-21T13:26:02;4.32;;;1.88;;
67997;SDS011;54773;53.388;-1.504;2022-09-21T13:39:41;4.45;;;2.47;;
67997;SDS011;54773;53.388;-1.504;2022-09-21T13:44:56;4.88;;;2.30;;
67997;SDS011;54773;53.388;-1.504;2022-09-21T13:47:29;4.95;;;2.63;;
67997;SDS011;54773;53.388;-1.504;2022-09-21T13:50:09;4.18;;;2.40;;
67997;SDS011;54773;53.388;-1.504;2022-09-21T13:52:38;4.18;;;2.35;;
67997;SDS011;54773;53.388;-1.504;2022-09-21T13:55:19;4.35;;;2.30;;
67997;SDS011;54773;53.388;-1.504;2022-09-21T13:57:47;4.15;;;2.30;;
67997;SDS011;54773;53.388;-1.504;2022-09-21T14:08:04;4.30;;;2.13;;
67997;SDS011;54773;53.388;-1.504;2022-09-21T14:10:32;7.60;;;2.10;;
67997;SDS011;54773;53.388;-1.504;2022-09-21T14:13:03;4.82;;;2.20;;
67997;SDS011;54773;53.388;-1.504;2022-09-21T14:15:33;4.15;;;1.98;;
67997;SDS011;54773;53.388;-1.504;2022-09-21T14:20:36;3.65;;;1.80;;
67997;SDS011;54773;53.388;-1.504;2022-09-21T14:24:06;4.88;;;2.53;;
67997;SDS011;54773;53.388;-1.504;2022-09-21T14:25:54;4.57;;;1.92;;
67997;SDS011;54773;53.388;-1.504;2022-09-21T14:31:12;3.42;;;1.73;;
67997;SDS011;54773;53.388;-1.504;2022-09-21T14:33:45;4.93;;;2.00;;
67997;SDS011;54773;53.388;-1.504;2022-09-21T14:36:16;4.13;;;2.15;;
67997;SDS011;54773;53.388;-1.504;2022-09-21T14:38:50;3.55;;;1.92;;
67997;SDS011;54773;53.388;-1.504;2022-09-21T14:41:20;3.92;;;1.80;;
67997;SDS011;54773;53.388;-1.504;2022-09-21T14:43:48;3.88;;;1.98;;
67997;SDS011;54773;53.388;-1.504;2022-09-21T15:02:39;4.35;;;1.95;;
67997;SDS011;54773;53.388;-1.504;2022-09-21T15:05:17;7.95;;;2.40;;
67997;SDS011;54773;53.388;-1.504;2022-09-21T15:07:50;4.50;;;2.20;;
67997;SDS011;54773;53.388;-1.504;2022-09-21T15:11:00;4.63;;;2.13;;
67997;SDS011;54773;53.388;-1.504;2022-09-21T15:13:50;3.47;;;2.15;;
67997;SDS011;54773;53.388;-1.504;2022-09-21T15:16:39;4.13;;;2.00;;
67997;SDS011;54773;53.388;-1.504;2022-09-21T15:22:15;4.13;;;2.15;;
67997;SDS011;54773;53.388;-1.504;2022-09-21T15:24:50;5.75;;;2.00;;
67997;SDS011;54773;53.388;-1.504;2022-09-21T15:27:21;5.38;;;2.20;;
67997;SDS011;54773;53.388;-1.504;2022-09-21T15:29:51;4.22;;;2.25;;
67997;SDS011;54773;53.388;-1.504;2022-09-21T15:35:05;4.90;;;2.22;;
67997;SDS011;54773;53.388;-1.504;2022-09-21T15:37:46;4.07;;;2.17;;
67997;SDS011;54773;53.388;-1.504;2022-09-21T15:42:58;6.45;;;2.25;;
67997;SDS011;54773;53.388;-1.504;2022-09-21T15:48:19;4.13;;;2.28;;
67997;SDS011;54773;53.388;-1.504;2022-09-21T15:50:52;4.47;;;2.30;;
67997;SDS011;54773;53.388;-1.504;2022-09-21T15:53:24;4.20;;;2.10;;
67997;SDS011;54773;53.388;-1.504;2022-09-21T15:55:53;4.38;;;2.30;;
67997;SDS011;54773;53.388;-1.504;2022-09-21T15:58:22;4.18;;;2.10;;
67997;SDS011;54773;53.388;-1.504;2022-09-21T16:00:53;5.07;;;2.40;;
67997;SDS011;54773;53.388;-1.504;2022-09-21T16:03:20;5.22;;;2.30;;
67997;SDS011;54773;53.388;-1.504;2022-09-21T16:05:48;4.85;;;2.10;;
67997;SDS011;54773;53.388;-1.504;2022-09-21T16:08:17;4.97;;;2.40;;
67997;SDS011;54773;53.388;-1.504;2022-09-21T16:10:42;4.88;;;2.40;;
67997;SDS011;54773;53.388;-1.504;2022-09-21T16:16:03;4.65;;;2.15;;
67997;SDS011;54773;53.388;-1.504;2022-09-21T16:24:09;3.80;;;1.63;;
67997;SDS011;54773;53.388;-1.504;2022-09-21T16:26:55;4.18;;;2.10;;
67997;SDS011;54773;53.388;-1.504;2022-09-21T16:29:22;5.57;;;2.28;;
67997;SDS011;54773;53.388;-1.504;2022-09-21T16:31:51;4.78;;;2.05;;
67997;SDS011;54773;53.388;-1.504;2022-09-21T16:37:58;4.05;;;2.05;;
67997;SDS011;54773;53.388;-1.504;2022-09-21T16:40:25;5.55;;;2.50;;
67997;SDS011;54773;53.388;-1.504;2022-09-21T16:42:57;4.65;;;2.10;;
67997;SDS011;54773;53.388;-1.504;2022-09-21T16:45:27;4.03;;;2.17;;
67997;SDS011;54773;53.388;-1.504;2022-09-21T16:47:56;3.70;;;2.20;;
67997;SDS011;54773;53.388;-1.504;2022-09-21T16:50:26;5.20;;;2.53;;
67997;SDS011;54773;53.388;-1.504;2022-09-21T16:52:51;5.38;;;2.80;;
67997;SDS011;54773;53.388;-1.504;2022-09-21T16:55:18;4.72;;;2.65;;
67997;SDS011;54773;53.388;-1.504;2022-09-21T16:57:44;4.97;;;2.78;;
67997;SDS011;54773;53.388;-1.504;2022-09-21T17:00:19;4.93;;;2.78;;
67997;SDS011;54773;53.388;-1.504;2022-09-21T17:02:49;6.25;;;2.50;;
67997;SDS011;54773;53.388;-1.504;2022-09-21T17:05:17;5.32;;;2.40;;
67997;SDS011;54773;53.388;-1.504;2022-09-21T17:07:56;4.75;;;2.65;;
67997;SDS011;54773;53.388;-1.504;2022-09-21T17:10:27;5.57;;;2.67;;
67997;SDS011;54773;53.388;-1.504;2022-09-21T17:12:56;4.45;;;2.75;;
67997;SDS011;54773;53.388;-1.504;2022-09-21T17:15:26;4.05;;;2.53;;
67997;SDS011;54773;53.388;-1.504;2022-09-21T17:17:53;5.05;;;2.95;;
67997;SDS011;54773;53.388;-1.504;2022-09-21T17:23:01;5.57;;;2.60;;
67997;SDS011;54773;53.388;-1.504;2022-09-21T17:25:28;5.35;;;2.80;;
67997;SDS011;54773;53.388;-1.504;2022-09-21T17:27:57;5.75;;;2.80;;
67997;SDS011;54773;53.388;-1.504;2022-09-21T17:30:27;6.93;;;3.00;;
67997;SDS011;54773;53.388;-1.504;2022-09-21T17:32:53;4.50;;;2.17;;
67997;SDS011;54773;53.388;-1.504;2022-09-21T17:35:24;6.55;;;2.60;;
67997;SDS011;54773;53.388;-1.504;2022-09-21T17:37:52;6.22;;;2.67;;
67997;SDS011;54773;53.388;-1.504;2022-09-21T17:40:18;6.97;;;3.05;;
67997;SDS011;54773;53.388;-1.504;2022-09-21T17:42:44;4.82;;;2.92;;
67997;SDS011;54773;53.388;-1.504;2022-09-21T17:47:51;7.78;;;4.00;;
67997;SDS011;54773;53.388;-1.504;2022-09-21T17:50:19;5.32;;;3.17;;
67997;SDS011;54773;53.388;-1.504;2022-09-21T17:52:50;8.05;;;3.45;;
67997;SDS011;54773;53.388;-1.504;2022-09-21T17:55:48;5.38;;;2.72;;
67997;SDS011;54773;53.388;-1.504;2022-09-21T18:01:06;5.95;;;2.95;;
67997;SDS011;54773;53.388;-1.504;2022-09-21T18:03:34;5.85;;;2.92;;
67997;SDS011;54773;53.388;-1.504;2022-09-21T18:06:08;5.32;;;2.80;;
67997;SDS011;54773;53.388;-1.504;2022-09-21T18:08:35;5.43;;;3.20;;
67997;SDS011;54773;53.388;-1.504;2022-09-21T18:13:45;6.13;;;3.08;;
67997;SDS011;54773;53.388;-1.504;2022-09-21T18:19:39;5.32;;;3.33;;
67997;SDS011;54773;53.388;-1.504;2022-09-21T18:25:05;5.38;;;3.30;;
67997;SDS011;54773;53.388;-1.504;2022-09-21T18:27:35;5.43;;;3.03;;
67997;SDS011;54773;53.388;-1.504;2022-09-21T18:30:02;5.72;;;2.97;;
67997;SDS011;54773;53.388;-1.504;2022-09-21T18:43:30;5.95;;;3.20;;
67997;SDS011;54773;53.388;-1.504;2022-09-21T18:46:04;6.82;;;4.15;;
67997;SDS011;54773;53.388;-1.504;2022-09-21T18:56:20;7.65;;;3.80;;
67997;SDS011;54773;53.388;-1.504;2022-09-21T18:58:50;4.97;;;3.42;;
67997;SDS011;54773;53.388;-1.504;2022-09-21T19:01:16;6.53;;;3.95;;